Time;durP1;ratioP1;P1;durP2;ratioP2;P2;SDS_P1;SDS_P2;PMS_P1;PMS_P2;Temp;Humidity;BMP_temperature;BMP_pressure;BME280_temperature;BME280_humidity;BME280_pressure;Samples;Min_cycle;Max_cycle;Signal;HPM_P1;HPM_P2
2021/07/22 00:05:24;;;;;;;9.98;5.25;;;18.20;99.90;;;;;;6752477;87;20206;-78
2021/07/22 00:15:25;;;;;;;11.23;5.85;;;18.10;99.90;;;;;;6745803;88;20388;-78
2021/07/22 00:25:25;;;;;;;10.98;5.32;;;18.00;99.90;;;;;;6739697;88;20296;-78
2021/07/22 00:35:26;;;;;;;10.75;5.70;;;17.70;99.90;;;;;;6745834;87;20188;-78
2021/07/22 00:45:28;;;;;;;8.43;5.40;;;17.70;99.90;;;;;;6746448;88;20698;-79
2021/07/22 00:55:29;;;;;;;10.63;5.43;;;17.60;99.90;;;;;;6745938;88;20258;-78
2021/07/22 01:05:29;;;;;;;9.18;5.18;;;17.70;99.90;;;;;;6744968;88;20173;-78
2021/07/22 01:15:31;;;;;;;8.48;5.10;;;17.30;99.90;;;;;;6739182;88;20207;-77
2021/07/22 01:25:32;;;;;;;8.50;5.10;;;17.10;99.90;;;;;;6743326;87;20177;-78
2021/07/22 01:35:32;;;;;;;8.30;5.10;;;17.00;99.90;;;;;;6753609;87;20153;-77
2021/07/22 01:45:33;;;;;;;11.48;5.45;;;16.90;99.90;;;;;;6761565;88;20928;-77
2021/07/22 01:55:33;;;;;;;10.70;5.60;;;16.70;99.90;;;;;;6771030;87;20189;-77
2021/07/22 02:05:34;;;;;;;7.68;5.25;;;16.80;99.90;;;;;;6742521;87;20211;-79
2021/07/22 02:15:34;;;;;;;9.80;5.57;;;16.70;99.90;;;;;;6746798;87;20233;-78
2021/07/22 02:25:35;;;;;;;8.82;5.43;;;16.40;99.90;;;;;;6739297;88;20622;-78
2021/07/22 02:35:36;;;;;;;9.95;5.62;;;16.20;99.90;;;;;;6742176;88;20811;-78
2021/07/22 02:45:37;;;;;;;8.60;5.55;;;16.10;99.90;;;;;;6741397;87;20185;-78
2021/07/22 02:55:38;;;;;;;10.82;6.85;;;16.00;99.90;;;;;;6748591;88;21029;-78
2021/07/22 03:05:38;;;;;;;12.70;6.43;;;15.80;99.90;;;;;;6750313;87;20181;-77
2021/07/22 03:15:39;;;;;;;15.85;7.12;;;15.60;99.90;;;;;;6737596;88;20236;-78
2021/07/22 03:25:40;;;;;;;11.93;6.85;;;15.60;99.90;;;;;;6741486;88;20189;-77
2021/07/22 03:35:41;;;;;;;11.82;7.28;;;15.80;99.90;;;;;;6738528;88;20692;-77
2021/07/22 03:45:42;;;;;;;12.10;7.25;;;15.50;99.90;;;;;;6746907;88;20176;-77
2021/07/22 03:55:42;;;;;;;13.65;7.40;;;15.30;99.90;;;;;;6745093;87;20223;-78
2021/07/22 04:05:43;;;;;;;13.90;8.10;;;15.20;99.90;;;;;;6723671;88;20198;-78
2021/07/22 04:15:43;;;;;;;16.27;9.07;;;15.00;99.90;;;;;;6739978;87;20664;-78
2021/07/22 04:25:46;;;;;;;15.93;8.35;;;14.90;99.90;;;;;;6747145;88;20628;-77
2021/07/22 04:35:46;;;;;;;18.12;9.02;;;14.90;99.90;;;;;;6748542;88;20372;-78
2021/07/22 04:45:47;;;;;;;17.12;9.20;;;14.90;99.90;;;;;;6740292;88;20603;-78
2021/07/22 04:55:47;;;;;;;18.52;9.68;;;15.00;99.90;;;;;;6739259;88;20211;-77
2021/07/22 05:05:48;;;;;;;16.62;9.25;;;15.10;99.90;;;;;;6745815;88;20210;-78
2021/07/22 05:15:48;;;;;;;17.23;8.98;;;15.30;99.90;;;;;;6748961;87;20350;-78
2021/07/22 05:25:49;;;;;;;18.02;9.45;;;15.60;99.90;;;;;;6747149;88;20312;-78
2021/07/22 05:35:49;;;;;;;18.52;9.45;;;15.70;99.90;;;;;;6753056;88;20788;-77
2021/07/22 05:46:10;;;;;;;17.17;9.93;;;16.00;99.90;;;;;;6747426;77;20193;-77
2021/07/22 05:56:17;;;;;;;21.75;10.55;;;16.20;99.90;;;;;;6735812;88;20196;-78
2021/07/22 06:06:17;;;;;;;18.30;9.77;;;16.50;99.90;;;;;;6731839;88;20186;-78
2021/07/22 06:16:18;;;;;;;19.87;9.25;;;17.40;99.90;;;;;;6720354;88;20249;-78
2021/07/22 06:26:18;;;;;;;20.67;9.20;;;18.20;99.90;;;;;;6733458;88;20223;-78
2021/07/22 06:36:19;;;;;;;17.48;8.95;;;18.90;99.90;;;;;;6734664;88;20189;-79
2021/07/22 06:46:20;;;;;;;16.23;8.43;;;19.40;99.90;;;;;;6727060;88;20211;-79
2021/07/22 06:56:20;;;;;;;16.58;8.43;;;19.90;99.90;;;;;;6731936;88;20734;-79
2021/07/22 07:06:21;;;;;;;12.55;7.30;;;20.30;99.90;;;;;;6723135;88;20217;-78
2021/07/22 07:16:21;;;;;;;10.43;6.68;;;21.00;99.90;;;;;;6736160;88;20219;-79
2021/07/22 07:26:22;;;;;;;12.97;7.13;;;21.30;99.90;;;;;;6732035;88;20213;-77
2021/07/22 07:36:22;;;;;;;12.80;6.82;;;22.00;99.90;;;;;;6734343;88;20512;-79
2021/07/22 07:46:23;;;;;;;12.35;6.65;;;22.30;99.90;;;;;;6721168;88;20347;-78
2021/07/22 07:56:27;;;;;;;11.00;6.03;;;23.00;99.90;;;;;;6734911;88;20197;-78
2021/07/22 08:06:27;;;;;;;11.12;5.93;;;23.70;99.90;;;;;;6719567;88;20177;-78
2021/07/22 08:16:28;;;;;;;29.73;12.10;;;24.20;99.90;;;;;;6729514;88;20236;-79
2021/07/22 08:26:28;;;;;;;10.27;5.75;;;24.60;99.90;;;;;;6727735;88;20649;-78
2021/07/22 08:36:29;;;;;;;13.57;6.47;;;26.10;99.90;;;;;;6729759;88;20204;-79
2021/07/22 08:46:30;;;;;;;12.45;5.80;;;26.70;99.90;;;;;;6722739;88;20379;-78
2021/07/22 08:56:32;;;;;;;11.07;5.30;;;27.40;98.70;;;;;;6729966;88;20918;-79
2021/07/22 09:06:32;;;;;;;9.20;4.28;;;27.50;98.00;;;;;;6724933;88;20213;-78
2021/07/22 09:16:36;;;;;;;8.75;4.30;;;28.60;94.30;;;;;;6725368;88;20299;-79
2021/07/22 09:26:39;;;;;;;9.50;4.43;;;29.20;92.30;;;;;;6737430;88;20306;-79
2021/07/22 09:36:40;;;;;;;6.72;3.75;;;29.70;90.30;;;;;;6728689;88;20192;-78
2021/07/22 09:46:41;;;;;;;9.00;3.97;;;29.80;87.00;;;;;;6736776;88;20257;-78
2021/07/22 09:56:41;;;;;;;6.55;4.28;;;29.40;85.30;;;;;;6736553;88;20209;-78
2021/07/22 10:06:47;;;;;;;8.38;4.95;;;30.30;82.40;;;;;;6735129;88;20232;-78
2021/07/22 10:16:48;;;;;;;6.53;4.53;;;29.40;77.10;;;;;;6732960;88;20718;-77
2021/07/22 10:26:51;;;;;;;7.43;4.78;;;29.30;78.30;;;;;;6733449;88;20602;-78
2021/07/22 10:36:52;;;;;;;6.68;4.30;;;31.30;72.80;;;;;;6734368;88;20224;-78
2021/07/22 10:46:54;;;;;;;7.60;4.13;;;32.70;69.20;;;;;;6732928;88;20224;-80
2021/07/22 10:56:54;;;;;;;6.65;4.30;;;32.00;71.40;;;;;;6732611;88;20215;-78
2021/07/22 11:06:58;;;;;;;8.23;4.35;;;33.50;68.00;;;;;;6733522;88;20213;-79
2021/07/22 11:17:00;;;;;;;5.87;4.25;;;34.00;66.20;;;;;;6733493;88;20229;-79
2021/07/22 11:27:01;;;;;;;6.75;4.55;;;34.50;65.60;;;;;;6728651;88;20371;-78
2021/07/22 11:37:02;;;;;;;8.30;4.75;;;34.50;62.70;;;;;;6728535;88;20189;-78
2021/07/22 11:47:14;;;;;;;5.95;4.53;;;33.70;63.60;;;;;;6711952;77;20328;-76
2021/07/22 11:57:15;;;;;;;7.00;5.20;;;34.30;65.10;;;;;;6712259;88;20186;-75
2021/07/22 12:07:26;;;;;;;6.75;4.95;;;34.50;61.40;;;;;;6699031;88;20712;-76
2021/07/22 12:17:26;;;;;;;7.43;5.57;;;34.60;63.40;;;;;;6701056;88;20186;-76
2021/07/22 12:27:34;;;;;;;9.67;6.10;;;33.00;61.70;;;;;;6700848;88;20252;-76
2021/07/22 12:38:04;;;;;;;9.35;6.57;;;31.90;64.30;;;;;;6696554;88;20256;-76
2021/07/22 12:48:05;;;;;;;13.18;7.32;;;31.60;64.80;;;;;;6701445;88;20564;-77
2021/07/22 12:58:21;;;;;;;11.48;7.45;;;32.20;63.80;;;;;;6694876;88;20308;-75
2021/07/22 13:08:21;;;;;;;14.10;8.45;;;31.50;65.20;;;;;;6713793;88;20324;-75
2021/07/22 13:18:22;;;;;;;15.43;9.70;;;32.40;64.60;;;;;;6697683;88;20174;-76
2021/07/22 13:28:22;;;;;;;14.20;10.43;;;32.30;65.30;;;;;;6709913;88;20217;-76
2021/07/22 13:38:33;;;;;;;13.93;9.85;;;32.40;63.40;;;;;;6697068;88;20212;-76
2021/07/22 13:48:34;;;;;;;15.43;9.40;;;31.50;65.10;;;;;;6703091;88;20266;-76
2021/07/22 13:58:35;;;;;;;13.77;10.10;;;31.90;64.60;;;;;;6698429;88;20206;-76
2021/07/22 14:08:35;;;;;;;15.63;10.10;;;32.40;65.10;;;;;;6697807;88;20691;-75
2021/07/22 14:18:36;;;;;;;12.30;9.18;;;31.40;65.70;;;;;;6698395;88;20192;-76
2021/07/22 14:28:36;;;;;;;14.63;9.38;;;32.20;63.70;;;;;;6701903;88;20687;-76
2021/07/22 14:38:37;;;;;;;13.57;9.63;;;32.70;64.50;;;;;;6699065;88;20206;-75
2021/07/22 14:48:37;;;;;;;15.18;9.88;;;32.90;63.00;;;;;;6707846;88;20246;-76
2021/07/22 14:58:38;;;;;;;18.00;9.85;;;33.30;62.50;;;;;;6703328;88;20211;-75
2021/07/22 15:08:38;;;;;;;12.70;8.73;;;32.60;63.60;;;;;;6700921;88;20286;-75
2021/07/22 15:18:39;;;;;;;15.60;9.60;;;31.80;65.50;;;;;;6702281;88;20222;-75
2021/07/22 15:28:40;;;;;;;13.18;9.45;;;32.10;66.10;;;;;;6702956;88;20355;-75
2021/07/22 15:38:41;;;;;;;;;;;31.40;65.80;;;;;;6695447;88;20273;-74
2021/07/22 15:48:41;;;;;;;15.18;9.77;;;31.50;65.10;;;;;;6695847;88;20883;-75
2021/07/22 15:58:42;;;;;;;13.70;8.73;;;31.40;65.80;;;;;;6699917;88;20396;-75
2021/07/22 16:08:43;;;;;;;13.82;8.85;;;30.80;65.80;;;;;;6703563;88;20225;-77
2021/07/22 16:18:43;;;;;;;14.40;8.80;;;30.30;66.40;;;;;;6702262;88;20223;-77
2021/07/22 16:28:44;;;;;;;12.82;8.73;;;29.70;68.40;;;;;;6701605;88;20190;-76
2021/07/22 16:38:44;;;;;;;13.60;8.38;;;30.20;68.70;;;;;;6703295;88;20219;-76
2021/07/22 16:48:45;;;;;;;12.30;8.55;;;29.50;70.30;;;;;;6698818;88;20222;-76
2021/07/22 16:58:45;;;;;;;17.42;9.52;;;29.10;71.50;;;;;;6702038;88;20318;-76
2021/07/22 17:08:46;;;;;;;15.55;8.63;;;29.40;70.70;;;;;;6696506;88;20216;-77
2021/07/22 17:18:46;;;;;;;13.43;8.50;;;29.10;70.60;;;;;;6700429;88;20974;-78
2021/07/22 17:28:47;;;;;;;13.43;8.70;;;30.00;70.20;;;;;;6700810;88;20695;-79
2021/07/22 17:38:47;;;;;;;14.75;9.07;;;30.00;69.80;;;;;;6702615;88;20198;-77
2021/07/22 17:48:48;;;;;;;15.07;9.43;;;30.20;69.90;;;;;;6649532;77;20201;-75
2021/07/22 17:58:49;;;;;;;16.87;9.40;;;29.50;70.30;;;;;;6630152;89;20212;-75
2021/07/22 18:08:50;;;;;;;15.38;9.02;;;28.90;71.90;;;;;;6630006;88;20185;-75
2021/07/22 18:18:50;;;;;;;16.10;9.73;;;28.10;74.70;;;;;;6627695;89;20233;-76
2021/07/22 18:28:51;;;;;;;14.45;10.10;;;28.20;75.30;;;;;;6623512;89;20210;-77
2021/07/22 18:38:51;;;;;;;13.43;7.85;;;27.70;76.70;;;;;;6613204;89;20200;-76
2021/07/22 18:48:52;;;;;;;13.03;7.80;;;27.10;78.50;;;;;;6614933;88;20672;-76
2021/07/22 18:58:53;;;;;;;12.85;7.78;;;26.70;80.70;;;;;;6618248;89;20217;-76
2021/07/22 19:08:54;;;;;;;13.62;7.47;;;26.10;83.30;;;;;;6617614;89;20205;-77
2021/07/22 19:18:56;;;;;;;10.80;7.45;;;25.70;85.50;;;;;;6617740;89;20192;-77
2021/07/22 19:28:57;;;;;;;12.60;7.20;;;25.30;87.80;;;;;;6624893;88;20189;-77
2021/07/22 19:38:57;;;;;;;13.30;7.12;;;25.00;90.50;;;;;;6634933;88;20203;-77
2021/07/22 19:48:58;;;;;;;12.25;7.30;;;24.60;92.00;;;;;;6627678;89;20221;-77
2021/07/22 19:59:03;;;;;;;16.98;10.27;;;24.30;93.40;;;;;;6637999;88;20192;-77
2021/07/22 20:09:04;;;;;;;16.55;10.55;;;24.00;94.80;;;;;;6637083;89;20629;-79
2021/07/22 20:19:06;;;;;;;11.32;7.60;;;23.80;96.20;;;;;;6646709;89;20278;-79
2021/07/22 20:29:06;;;;;;;10.30;7.20;;;23.50;97.30;;;;;;6639689;89;20761;-78
2021/07/22 20:39:07;;;;;;;11.70;6.63;;;23.50;98.40;;;;;;6635170;88;20232;-79
2021/07/22 20:49:07;;;;;;;13.35;6.62;;;23.30;99.50;;;;;;6630165;88;20578;-77
2021/07/22 20:59:08;;;;;;;13.77;6.50;;;22.90;99.90;;;;;;6615973;89;20207;-78
2021/07/22 21:09:09;;;;;;;10.20;6.25;;;22.80;99.90;;;;;;6637124;89;20778;-78
2021/07/22 21:19:10;;;;;;;10.70;6.80;;;22.50;99.90;;;;;;6629004;89;20738;-77
2021/07/22 21:29:10;;;;;;;10.02;6.28;;;22.40;99.90;;;;;;6622841;89;20266;-77
2021/07/22 21:39:11;;;;;;;11.73;6.03;;;22.00;99.90;;;;;;6616228;88;20312;-77
2021/07/22 21:49:12;;;;;;;10.03;6.07;;;21.60;99.90;;;;;;6616210;88;20210;-76
2021/07/22 21:59:12;;;;;;;13.40;6.87;;;21.60;99.90;;;;;;6616532;89;22528;-77
2021/07/22 22:09:13;;;;;;;10.25;6.15;;;21.60;99.90;;;;;;6623588;88;20215;-78
2021/07/22 22:19:13;;;;;;;13.10;6.93;;;21.40;99.90;;;;;;6615596;89;20198;-77
2021/07/22 22:29:14;;;;;;;10.63;6.95;;;21.00;99.90;;;;;;6616002;89;20718;-78
2021/07/22 22:39:16;;;;;;;13.85;7.62;;;20.70;99.90;;;;;;6629593;88;20246;-77
2021/07/22 22:49:17;;;;;;;12.82;7.70;;;20.50;99.90;;;;;;6616432;89;20216;-78
2021/07/22 22:59:17;;;;;;;12.32;7.80;;;20.40;99.90;;;;;;6615879;89;20182;-77
2021/07/22 23:09:18;;;;;;;13.57;7.18;;;20.10;99.90;;;;;;6615434;88;20818;-78
2021/07/22 23:19:19;;;;;;;11.73;7.25;;;20.00;99.90;;;;;;6620635;89;20208;-77
2021/07/22 23:29:19;;;;;;;12.02;7.57;;;19.80;99.90;;;;;;6624956;89;20290;-77
2021/07/22 23:39:20;;;;;;;18.58;8.55;;;19.60;99.90;;;;;;6619680;89;20273;-77
2021/07/22 23:49:20;;;;;;;12.25;7.70;;;19.50;99.90;;;;;;6687071;77;20672;-78
2021/07/22 23:59:21;;;;;;;14.00;8.02;;;19.40;99.90;;;;;;6697424;88;20182;-78
